Time;durP1;ratioP1;P1;durP2;ratioP2;P2;SDS_P1;SDS_P2;PMS_P1;PMS_P2;Temp;Humidity;BMP_temperature;BMP_pressure;BME280_temperature;BME280_humidity;BME280_pressure;Samples;Min_cycle;Max_cycle;Signal;HPM_P1;HPM_P2
2022/10/05 00:00:26;;;;;;;15.38;9.73;;;14.90;99.90;;;;;;5088910;28;20046;-71
2022/10/05 00:02:53;;;;;;;15.10;9.80;;;14.80;99.90;;;;;;5068974;28;20066;-72
2022/10/05 00:05:21;;;;;;;13.93;9.77;;;14.90;99.90;;;;;;5088900;28;20040;-71
2022/10/05 00:07:46;;;;;;;12.80;8.73;;;14.90;99.90;;;;;;5070397;28;20110;-71
2022/10/05 00:10:17;;;;;;;14.35;9.18;;;14.80;99.90;;;;;;5083434;28;20438;-71
2022/10/05 00:12:47;;;;;;;14.95;9.07;;;14.80;99.90;;;;;;5070070;28;20036;-71
2022/10/05 00:15:16;;;;;;;11.35;7.88;;;14.80;99.90;;;;;;5081667;28;20076;-71
2022/10/05 00:17:42;;;;;;;11.10;8.20;;;14.80;99.90;;;;;;5049828;28;20032;-71
2022/10/05 00:20:26;;;;;;;13.57;7.65;;;14.80;99.90;;;;;;5050051;28;20458;-71
2022/10/05 00:22:59;;;;;;;10.32;7.75;;;14.80;99.90;;;;;;5065938;28;20036;-71
2022/10/05 00:25:25;;;;;;;12.75;8.15;;;14.80;99.90;;;;;;5068753;28;20048;-71
2022/10/05 00:27:59;;;;;;;11.45;8.20;;;14.80;99.90;;;;;;5051841;28;20099;-72
2022/10/05 00:30:32;;;;;;;13.00;8.57;;;14.80;99.90;;;;;;5067835;28;20064;-70
2022/10/05 00:32:58;;;;;;;14.15;8.18;;;14.70;99.90;;;;;;5065681;28;20519;-71
2022/10/05 00:35:24;;;;;;;10.98;8.23;;;14.90;99.90;;;;;;5067835;28;20078;-71
2022/10/05 00:37:54;;;;;;;10.07;7.70;;;14.80;99.90;;;;;;5063905;28;20713;-71
2022/10/05 00:40:39;;;;;;;11.95;8.25;;;14.90;99.90;;;;;;5052954;28;20082;-71
2022/10/05 00:43:18;;;;;;;13.23;8.07;;;14.80;99.90;;;;;;5075426;28;20044;-71
2022/10/05 00:45:49;;;;;;;11.70;7.28;;;14.90;99.90;;;;;;5079065;28;20051;-71
2022/10/05 00:48:17;;;;;;;;;;;14.80;99.90;;;;;;5050389;28;20059;-72
2022/10/05 00:51:10;;;;;;;18.60;7.70;;;14.80;99.90;;;;;;5067619;28;20387;-72
2022/10/05 00:53:44;;;;;;;11.73;7.90;;;14.90;99.90;;;;;;5065659;28;20137;-71
2022/10/05 00:56:36;;;;;;;14.57;8.13;;;14.90;99.90;;;;;;5058754;28;20922;-71
2022/10/05 00:59:09;;;;;;;11.20;7.07;;;14.80;99.90;;;;;;5074853;28;20806;-70
2022/10/05 01:01:54;;;;;;;10.82;7.65;;;14.80;99.90;;;;;;5086558;28;20044;-72
2022/10/05 01:04:33;;;;;;;8.40;6.45;;;14.80;99.90;;;;;;5069358;28;20503;-71
2022/10/05 01:07:23;;;;;;;8.95;6.93;;;14.80;99.90;;;;;;5051102;28;20055;-71
2022/10/05 01:10:09;;;;;;;9.65;6.82;;;14.80;99.90;;;;;;5066781;28;20084;-71
2022/10/05 01:12:53;;;;;;;9.55;6.28;;;14.80;99.90;;;;;;5068277;28;20044;-71
2022/10/05 01:15:34;;;;;;;9.02;6.15;;;14.80;99.90;;;;;;5081239;28;20135;-71
2022/10/05 01:18:04;;;;;;;10.50;6.10;;;14.80;99.90;;;;;;5037524;28;20040;-71
2022/10/05 01:20:47;;;;;;;10.20;6.18;;;14.80;99.90;;;;;;5081962;28;20060;-71
2022/10/05 01:23:36;;;;;;;7.38;5.78;;;14.80;99.90;;;;;;5085628;28;20043;-71
2022/10/05 01:26:23;;;;;;;9.20;5.68;;;14.80;99.90;;;;;;5037764;28;20120;-70
2022/10/05 01:29:00;;;;;;;12.25;6.22;;;14.70;99.90;;;;;;5079627;28;20056;-71
2022/10/05 01:31:32;;;;;;;8.13;5.55;;;14.70;99.90;;;;;;5065898;28;20064;-71
2022/10/05 01:34:09;;;;;;;10.02;6.13;;;14.70;99.90;;;;;;5065311;28;20051;-71
2022/10/05 01:37:11;;;;;;;7.78;5.30;;;14.70;99.90;;;;;;5052424;28;20075;-71
2022/10/05 01:40:06;;;;;;;10.30;5.50;;;14.80;99.90;;;;;;5065843;28;20056;-71
2022/10/05 01:42:50;;;;;;;8.40;5.90;;;14.80;99.90;;;;;;5065081;28;20568;-71
2022/10/05 01:45:52;;;;;;;11.35;5.80;;;14.70;99.90;;;;;;5038660;28;20414;-71
2022/10/05 01:48:26;;;;;;;11.48;5.60;;;14.80;99.90;;;;;;5035948;28;20109;-71
2022/10/05 01:51:22;;;;;;;8.82;5.97;;;14.80;99.90;;;;;;5071089;28;20041;-71
2022/10/05 01:53:47;;;;;;;8.48;6.10;;;14.80;99.90;;;;;;5069137;28;20052;-71
2022/10/05 01:56:34;;;;;;;10.63;6.30;;;14.80;99.90;;;;;;5060337;28;20053;-71
2022/10/05 01:59:18;;;;;;;9.45;6.00;;;14.80;99.90;;;;;;5066860;28;20048;-71
2022/10/05 02:01:57;;;;;;;8.80;6.75;;;14.70;99.90;;;;;;5069429;28;20047;-71
2022/10/05 02:04:32;;;;;;;8.13;6.43;;;14.70;99.90;;;;;;5068489;28;20403;-71
2022/10/05 02:06:59;;;;;;;12.90;7.00;;;14.70;99.90;;;;;;5053977;28;20044;-71
2022/10/05 02:09:28;;;;;;;10.68;7.05;;;14.60;99.90;;;;;;5069772;28;20053;-71
2022/10/05 02:12:01;;;;;;;17.25;7.97;;;14.60;99.90;;;;;;5068793;28;20056;-71
2022/10/05 02:14:32;;;;;;;10.07;7.00;;;14.70;99.90;;;;;;5079432;28;20548;-71
2022/10/05 02:17:04;;;;;;;13.00;7.80;;;14.70;99.90;;;;;;5048109;28;20124;-71
2022/10/05 02:19:43;;;;;;;14.02;7.53;;;14.70;99.90;;;;;;5068230;28;20517;-71
2022/10/05 02:22:16;;;;;;;12.07;7.57;;;14.60;99.90;;;;;;5069818;28;20029;-71
2022/10/05 02:24:49;;;;;;;10.98;7.75;;;14.60;99.90;;;;;;5069085;28;20495;-71
2022/10/05 02:27:24;;;;;;;10.82;7.68;;;14.60;99.90;;;;;;5052328;28;20492;-71
2022/10/05 02:29:55;;;;;;;15.38;8.32;;;14.60;99.90;;;;;;5068946;28;20487;-72
2022/10/05 02:32:26;;;;;;;10.73;8.15;;;14.60;99.90;;;;;;5068915;28;20495;-71
2022/10/05 02:34:51;;;;;;;14.18;8.25;;;14.60;99.90;;;;;;5068975;28;20477;-71
2022/10/05 02:37:59;;;;;;;10.13;7.05;;;14.70;99.90;;;;;;5052863;28;20103;-71
2022/10/05 02:41:11;;;;;;;10.98;7.93;;;14.60;99.90;;;;;;5069931;28;20052;-71
2022/10/05 02:43:56;;;;;;;;;;;14.60;99.90;;;;;;5027268;28;20057;-71
2022/10/05 02:46:45;;;;;;;10.48;7.35;;;14.60;99.90;;;;;;5049503;28;19932;-72
2022/10/05 02:49:33;;;;;;;13.25;7.38;;;14.60;99.90;;;;;;5067210;28;20454;-71
2022/10/05 02:52:05;;;;;;;14.68;8.15;;;14.60;99.90;;;;;;5063115;28;20048;-71
2022/10/05 02:54:52;;;;;;;13.00;8.20;;;14.60;99.90;;;;;;5084168;28;20044;-71
2022/10/05 02:57:37;;;;;;;10.95;7.47;;;14.60;99.90;;;;;;5061723;28;20094;-71
2022/10/05 03:00:18;;;;;;;12.93;6.78;;;14.60;99.90;;;;;;5088950;28;20040;-71
2022/10/05 03:02:55;;;;;;;9.63;6.80;;;14.60;99.90;;;;;;5072228;28;20773;-71
2022/10/05 03:05:24;;;;;;;10.63;7.68;;;14.60;99.90;;;;;;5066892;28;20055;-71
2022/10/05 03:07:59;;;;;;;11.50;7.15;;;14.60;99.90;;;;;;5051173;28;20523;-71
2022/10/05 03:10:28;;;;;;;12.30;7.00;;;14.70;99.90;;;;;;5061558;28;20055;-71
2022/10/05 03:12:54;;;;;;;10.73;6.25;;;14.70;99.90;;;;;;5042283;28;20126;-71
2022/10/05 03:15:35;;;;;;;10.10;6.80;;;14.80;99.90;;;;;;5067684;28;20455;-71
2022/10/05 03:18:25;;;;;;;8.27;4.93;;;14.80;99.90;;;;;;5042845;28;20546;-71
2022/10/05 03:21:25;;;;;;;10.13;6.15;;;14.90;99.90;;;;;;5068490;28;20109;-71
2022/10/05 03:24:28;;;;;;;8.27;6.05;;;14.80;99.90;;;;;;5058892;28;20084;-71
2022/10/05 03:27:22;;;;;;;8.52;5.50;;;14.80;99.90;;;;;;5042392;28;20056;-70
2022/10/05 03:30:01;;;;;;;9.30;5.20;;;14.80;99.90;;;;;;5054402;28;20538;-71
2022/10/05 03:32:35;;;;;;;7.45;5.32;;;14.70;99.90;;;;;;5055910;28;20051;-71
2022/10/05 03:35:18;;;;;;;7.22;5.38;;;14.70;99.90;;;;;;5064501;28;20048;-71
2022/10/05 03:37:59;;;;;;;8.38;5.68;;;14.70;99.90;;;;;;5053252;28;20063;-71
2022/10/05 03:40:54;;;;;;;8.75;5.90;;;14.70;99.90;;;;;;5067498;28;20387;-71
2022/10/05 03:43:32;;;;;;;8.48;6.00;;;14.70;99.90;;;;;;5072299;28;20135;-71
2022/10/05 03:46:11;;;;;;;9.45;5.70;;;14.80;99.90;;;;;;5074853;28;20060;-71
2022/10/05 03:49:09;;;;;;;10.38;6.35;;;14.70;99.90;;;;;;5055739;28;20051;-70
2022/10/05 03:51:39;;;;;;;9.60;5.63;;;14.70;99.90;;;;;;5064885;28;20054;-71
2022/10/05 03:54:23;;;;;;;8.18;4.85;;;14.70;99.90;;;;;;5068042;28;20800;-70
2022/10/05 03:56:52;;;;;;;11.50;5.13;;;14.70;99.90;;;;;;5051948;28;20415;-71
2022/10/05 03:59:33;;;;;;;7.35;4.50;;;14.70;99.90;;;;;;5067265;28;20410;-71
2022/10/05 04:02:05;;;;;;;5.82;4.05;;;14.70;99.90;;;;;;5068358;28;20052;-71
2022/10/05 04:04:41;;;;;;;6.65;4.65;;;14.70;99.90;;;;;;5065177;28;20041;-71
2022/10/05 04:07:20;;;;;;;9.30;4.15;;;14.70;99.90;;;;;;5039011;28;20053;-71
2022/10/05 04:09:51;;;;;;;7.72;4.30;;;14.70;99.90;;;;;;5086436;28;20461;-71
2022/10/05 04:12:52;;;;;;;9.18;4.75;;;14.80;99.90;;;;;;5066252;28;20048;-71
2022/10/05 04:15:45;;;;;;;7.97;4.88;;;14.70;99.90;;;;;;5070452;28;20063;-71
2022/10/05 04:18:30;;;;;;;8.85;5.15;;;14.70;99.90;;;;;;5050256;28;20041;-71
2022/10/05 04:21:30;;;;;;;7.43;4.55;;;14.60;99.90;;;;;;5066538;28;20071;-71
2022/10/05 04:24:14;;;;;;;7.03;4.50;;;14.70;99.90;;;;;;5049317;28;20036;-71
2022/10/05 04:26:44;;;;;;;8.80;5.22;;;14.60;99.90;;;;;;5052965;28;20110;-71
2022/10/05 04:29:39;;;;;;;9.85;5.13;;;14.60;99.90;;;;;;5065714;28;20059;-71
2022/10/05 04:32:26;;;;;;;8.95;5.30;;;14.70;99.90;;;;;;5050418;28;20048;-72
2022/10/05 04:35:06;;;;;;;8.02;5.18;;;14.60;99.90;;;;;;5049804;28;20068;-71
2022/10/05 04:37:50;;;;;;;6.83;4.87;;;14.60;99.90;;;;;;5050639;28;20097;-71
2022/10/05 04:40:24;;;;;;;8.80;5.13;;;14.60;99.90;;;;;;5041948;28;20086;-71
2022/10/05 04:43:12;;;;;;;8.45;5.05;;;14.60;99.90;;;;;;5075513;28;20052;-71
2022/10/05 04:45:52;;;;;;;7.47;4.82;;;14.60;99.90;;;;;;5057578;28;20045;-71
2022/10/05 04:48:43;;;;;;;7.30;4.65;;;14.50;99.90;;;;;;5049727;28;20049;-71
2022/10/05 04:51:50;;;;;;;10.73;4.88;;;14.60;99.90;;;;;;5066609;28;20064;-71
2022/10/05 04:54:53;;;;;;;7.88;4.97;;;14.60;99.90;;;;;;5049076;28;20500;-71
2022/10/05 04:57:27;;;;;;;8.57;4.53;;;14.60;99.90;;;;;;5050111;28;20578;-71
2022/10/05 05:00:17;;;;;;;7.13;5.20;;;14.60;99.90;;;;;;5066741;28;20048;-71
2022/10/05 05:02:46;;;;;;;8.65;5.97;;;14.50;99.90;;;;;;5064560;28;20055;-71
2022/10/05 05:05:19;;;;;;;8.18;5.78;;;14.60;99.90;;;;;;5068144;28;20387;-70
2022/10/05 05:07:50;;;;;;;9.02;6.43;;;14.60;99.90;;;;;;5051176;28;20056;-70
2022/10/05 05:10:42;;;;;;;8.70;5.88;;;14.50;99.90;;;;;;5066685;28;20514;-71
2022/10/05 05:13:29;;;;;;;10.85;6.07;;;14.50;99.90;;;;;;5069093;28;20044;-71
2022/10/05 05:16:02;;;;;;;11.45;7.15;;;14.50;99.90;;;;;;5075524;28;20055;-71
2022/10/05 05:18:49;;;;;;;11.38;7.10;;;14.50;99.90;;;;;;5039144;28;20618;-71
2022/10/05 05:21:52;;;;;;;12.70;7.25;;;14.50;99.90;;;;;;5065524;28;20052;-71
2022/10/05 05:24:33;;;;;;;17.05;9.43;;;14.50;99.90;;;;;;5062061;28;20079;-71
2022/10/05 05:26:58;;;;;;;10.15;6.97;;;14.50;99.90;;;;;;5041887;28;20090;-71
2022/10/05 05:29:39;;;;;;;12.80;9.48;;;14.50;99.90;;;;;;5065799;28;20110;-71
2022/10/05 05:32:31;;;;;;;15.55;9.55;;;14.50;99.90;;;;;;5049537;28;20136;-71
2022/10/05 05:35:24;;;;;;;16.35;9.57;;;14.50;99.90;;;;;;5051644;28;20052;-71
2022/10/05 05:37:59;;;;;;;11.38;7.35;;;14.60;99.90;;;;;;5036269;28;20106;-71
2022/10/05 05:40:32;;;;;;;10.27;7.93;;;14.50;99.90;;;;;;5070786;28;20055;-71
2022/10/05 05:42:59;;;;;;;11.20;7.03;;;14.50;99.90;;;;;;5071279;28;20040;-71
2022/10/05 05:45:45;;;;;;;10.20;7.10;;;14.50;99.90;;;;;;5085905;28;20041;-71
2022/10/05 05:48:25;;;;;;;12.13;7.03;;;14.50;99.90;;;;;;5049181;28;20044;-70
2022/10/05 05:50:53;;;;;;;10.88;7.30;;;14.50;99.90;;;;;;5063589;28;20040;-71
2022/10/05 05:53:30;;;;;;;10.63;6.90;;;14.50;99.90;;;;;;5060151;28;20052;-71
2022/10/05 05:56:12;;;;;;;11.13;7.85;;;14.40;99.90;;;;;;5060334;28;20837;-71
2022/10/05 05:58:43;;;;;;;;;;;14.40;99.90;;;;;;5043615;28;20099;-71
2022/10/05 06:01:17;;;;;;;12.85;8.02;;;14.40;99.90;;;;;;5053164;28;20342;-71
2022/10/05 06:03:52;;;;;;;13.68;8.23;;;14.50;99.90;;;;;;5056811;28;20779;-71
2022/10/05 06:06:24;;;;;;;13.00;6.97;;;14.50;99.90;;;;;;5047774;28;20459;-71
2022/10/05 06:08:57;;;;;;;17.05;9.82;;;14.50;99.90;;;;;;5065069;28;20068;-71
2022/10/05 06:11:25;;;;;;;12.13;7.22;;;14.40;99.90;;;;;;5074003;28;20079;-71
2022/10/05 06:13:53;;;;;;;11.73;7.78;;;14.40;99.90;;;;;;5082364;28;20043;-72
2022/10/05 06:16:37;;;;;;;11.25;7.30;;;14.40;99.90;;;;;;5072086;28;20063;-71
2022/10/05 06:19:13;;;;;;;12.63;7.70;;;14.50;99.90;;;;;;5086502;28;20040;-71
2022/10/05 06:22:00;;;;;;;12.48;7.30;;;14.40;99.90;;;;;;5089478;28;20040;-71
2022/10/05 06:24:35;;;;;;;10.77;6.82;;;14.40;99.90;;;;;;5078574;28;20130;-71
2022/10/05 06:27:06;;;;;;;13.38;7.63;;;14.50;99.90;;;;;;5049312;28;20033;-71
2022/10/05 06:30:00;;;;;;;12.02;7.57;;;14.50;99.90;;;;;;5068811;28;20048;-71
2022/10/05 06:32:49;;;;;;;10.52;7.00;;;14.50;99.90;;;;;;5054673;28;20487;-71
2022/10/05 06:35:43;;;;;;;10.10;6.88;;;14.50;99.90;;;;;;5047491;28;20141;-71
2022/10/05 06:38:33;;;;;;;11.18;6.68;;;14.50;99.90;;;;;;5038254;28;20056;-71
2022/10/05 06:41:14;;;;;;;10.45;7.15;;;14.50;99.90;;;;;;5054715;28;20057;-70
2022/10/05 06:43:40;;;;;;;11.85;7.00;;;14.40;99.90;;;;;;5057234;28;20041;-71
2022/10/05 06:46:24;;;;;;;10.05;7.18;;;14.40;99.90;;;;;;5078604;28;20395;-70
2022/10/05 06:48:59;;;;;;;9.50;6.68;;;14.40;99.90;;;;;;5072639;28;20048;-72
2022/10/05 06:51:41;;;;;;;13.15;6.53;;;14.40;99.90;;;;;;5076900;28;20056;-71
2022/10/05 06:54:24;;;;;;;9.25;7.05;;;14.50;99.90;;;;;;5077158;28;20102;-71
2022/10/05 06:57:22;;;;;;;11.55;6.68;;;14.50;99.90;;;;;;5063320;28;20976;-72
2022/10/05 07:00:06;;;;;;;9.32;6.40;;;14.50;99.90;;;;;;5038059;28;20261;-71
2022/10/05 07:02:32;;;;;;;8.07;6.15;;;14.50;99.90;;;;;;5067732;28;20048;-71
2022/10/05 07:05:19;;;;;;;13.18;6.63;;;14.60;99.90;;;;;;5068494;28;20057;-72
2022/10/05 07:07:54;;;;;;;9.57;6.47;;;14.60;99.90;;;;;;5044439;28;20050;-71
2022/10/05 07:10:35;;;;;;;14.25;8.55;;;14.70;99.90;;;;;;5070418;28;20059;-71
2022/10/05 07:13:37;;;;;;;15.95;10.30;;;14.60;99.90;;;;;;5071606;28;20044;-71
2022/10/05 07:16:27;;;;;;;11.98;8.07;;;14.60;99.90;;;;;;5053552;28;20076;-71
2022/10/05 07:19:11;;;;;;;8.55;5.60;;;14.60;99.90;;;;;;5050855;28;20048;-71
2022/10/05 07:22:07;;;;;;;11.75;6.03;;;14.60;99.90;;;;;;5056042;28;20037;-71
2022/10/05 07:24:41;;;;;;;10.50;6.30;;;14.70;99.90;;;;;;5044504;28;20060;-71
2022/10/05 07:27:19;;;;;;;9.90;6.00;;;14.60;99.90;;;;;;5028769;28;20049;-71
2022/10/05 07:30:05;;;;;;;11.20;6.90;;;14.60;99.90;;;;;;5047357;28;20052;-71
2022/10/05 07:33:08;;;;;;;9.55;6.03;;;14.70;99.90;;;;;;5044386;28;20064;-71
2022/10/05 07:38:44;;;;;;;10.10;6.30;;;14.70;99.90;;;;;;5035554;28;20054;-71
2022/10/05 07:41:19;;;;;;;7.68;5.50;;;14.80;99.90;;;;;;5046711;28;20052;-72
2022/10/05 07:43:44;;;;;;;10.27;6.75;;;14.80;99.90;;;;;;5043593;28;20032;-71
2022/10/05 07:46:22;;;;;;;8.50;6.13;;;14.80;99.90;;;;;;5037335;28;20727;-71
2022/10/05 07:49:12;;;;;;;8.38;5.35;;;14.80;99.90;;;;;;5040229;28;20032;-71
2022/10/05 07:51:55;;;;;;;9.93;5.30;;;14.90;99.90;;;;;;5046373;28;20098;-71
2022/10/05 07:54:32;;;;;;;6.43;4.40;;;14.90;99.90;;;;;;5043537;28;20562;-71
2022/10/05 07:57:03;;;;;;;7.07;5.10;;;14.90;99.90;;;;;;5011340;28;20182;-71
2022/10/05 08:00:05;;;;;;;13.32;6.38;;;14.90;99.90;;;;;;5042481;28;20045;-71
2022/10/05 08:02:41;;;;;;;5.43;4.03;;;14.90;99.90;;;;;;5038604;28;20037;-72
2022/10/05 08:05:12;;;;;;;7.05;4.35;;;14.90;99.90;;;;;;5044103;28;20064;-72
2022/10/05 08:07:38;;;;;;;;;;;15.00;99.90;;;;;;5027361;28;22078;-72
2022/10/05 08:10:16;;;;;;;7.80;5.35;;;15.10;99.90;;;;;;5047517;28;19935;-71
2022/10/05 08:12:54;;;;;;;7.43;4.18;;;15.00;99.90;;;;;;5044464;28;20048;-71
2022/10/05 08:15:24;;;;;;;5.68;4.10;;;15.00;99.90;;;;;;5042705;28;20064;-71
2022/10/05 08:18:01;;;;;;;5.65;3.78;;;14.90;99.90;;;;;;5028742;28;20052;-72
2022/10/05 08:20:32;;;;;;;6.32;4.10;;;15.00;99.90;;;;;;5045822;28;20484;-72
2022/10/05 08:23:08;;;;;;;6.03;3.72;;;15.00;99.90;;;;;;5043345;28;20086;-71
2022/10/05 08:25:57;;;;;;;3.92;3.10;;;15.10;99.90;;;;;;5043802;28;20048;-71
2022/10/05 08:28:30;;;;;;;3.78;2.20;;;15.10;99.90;;;;;;5028548;28;20102;-72
2022/10/05 08:31:12;;;;;;;4.35;3.20;;;15.10;99.90;;;;;;5043829;28;20055;-70
2022/10/05 08:33:54;;;;;;;6.47;2.10;;;15.20;99.90;;;;;;5027666;28;20036;-71
2022/10/05 08:36:29;;;;;;;5.13;2.67;;;15.20;99.90;;;;;;5016915;28;20529;-71
2022/10/05 08:38:58;;;;;;;4.80;1.60;;;15.30;99.90;;;;;;5039809;28;20636;-72
2022/10/05 08:41:24;;;;;;;6.15;2.65;;;15.30;99.90;;;;;;5044785;28;20052;-71
2022/10/05 08:44:14;;;;;;;6.20;2.47;;;15.40;99.90;;;;;;5044433;28;20106;-71
2022/10/05 08:46:58;;;;;;;3.50;1.52;;;15.40;99.90;;;;;;5029320;28;20063;-72
2022/10/05 08:49:52;;;;;;;3.70;1.65;;;15.50;99.90;;;;;;5043165;28;20549;-71
2022/10/05 08:52:30;;;;;;;4.32;1.90;;;15.50;99.90;;;;;;5043874;28;20052;-71
2022/10/05 08:55:05;;;;;;;4.40;1.52;;;15.50;99.90;;;;;;5045002;28;20049;-71
2022/10/05 08:58:01;;;;;;;2.72;1.55;;;15.50;99.90;;;;;;5029000;28;20111;-71
2022/10/05 09:01:03;;;;;;;2.72;1.40;;;15.50;99.90;;;;;;5044287;28;20052;-71
2022/10/05 09:03:57;;;;;;;6.65;1.60;;;15.60;99.90;;;;;;5027807;28;20475;-71
2022/10/05 09:06:49;;;;;;;2.50;1.48;;;15.60;99.90;;;;;;5032602;28;20063;-72
2022/10/05 09:09:24;;;;;;;2.97;1.48;;;15.70;99.90;;;;;;5043535;28;20072;-71
2022/10/05 09:12:38;;;;;;;3.25;1.75;;;15.70;99.90;;;;;;5045921;28;20080;-71
2022/10/05 09:15:19;;;;;;;4.32;1.85;;;15.80;99.90;;;;;;4966311;28;20057;-72
2022/10/05 09:18:09;;;;;;;2.35;1.58;;;15.80;99.90;;;;;;4935698;28;20092;-71
2022/10/05 09:20:54;;;;;;;5.20;2.00;;;15.90;99.90;;;;;;5019213;28;20052;-70
2022/10/05 09:23:41;;;;;;;5.47;1.77;;;16.00;99.90;;;;;;5042851;28;20049;-71
2022/10/05 09:26:27;;;;;;;3.28;1.85;;;16.00;99.90;;;;;;5043108;28;20598;-72
2022/10/05 09:29:30;;;;;;;3.45;2.28;;;16.10;99.90;;;;;;5023572;28;20093;-73
2022/10/05 09:31:59;;;;;;;4.70;2.40;;;16.10;99.90;;;;;;5046810;28;20060;-71
2022/10/05 09:34:46;;;;;;;5.65;2.30;;;16.00;99.90;;;;;;5045039;28;20040;-72
2022/10/05 09:37:12;;;;;;;5.60;2.30;;;16.00;99.90;;;;;;5028511;28;20515;-71
2022/10/05 09:39:56;;;;;;;7.07;2.40;;;16.10;99.90;;;;;;5043770;28;20299;-71
2022/10/05 09:42:41;;;;;;;5.10;2.90;;;16.20;99.90;;;;;;5042776;28;20133;-70
2022/10/05 09:45:28;;;;;;;5.85;3.08;;;16.20;99.90;;;;;;5044804;28;20052;-70
2022/10/05 09:47:58;;;;;;;6.22;2.80;;;16.40;99.90;;;;;;5028177;28;20418;-71
2022/10/05 09:50:36;;;;;;;8.05;2.92;;;16.30;99.90;;;;;;5045066;28;20448;-72
2022/10/05 09:53:39;;;;;;;9.02;3.13;;;16.40;99.90;;;;;;5043112;28;20067;-71
2022/10/05 09:56:14;;;;;;;3.70;3.13;;;16.40;99.90;;;;;;5042881;28;20040;-72
2022/10/05 09:58:52;;;;;;;5.18;2.90;;;16.40;99.90;;;;;;5037868;28;20072;-71
2022/10/05 10:01:33;;;;;;;5.70;3.10;;;16.30;99.90;;;;;;5042593;28;20830;-71
2022/10/05 10:04:17;;;;;;;6.90;3.03;;;16.30;99.90;;;;;;5042197;28;20045;-71
2022/10/05 10:07:37;;;;;;;5.70;3.05;;;16.40;99.90;;;;;;5031910;28;20511;-71
2022/10/05 10:10:28;;;;;;;6.40;3.17;;;16.30;99.90;;;;;;4968203;28;20055;-72
2022/10/05 10:13:12;;;;;;;5.40;2.88;;;16.30;99.90;;;;;;4998488;28;20131;-71
2022/10/05 10:16:00;;;;;;;6.43;2.97;;;16.30;99.90;;;;;;5047856;28;20079;-71
2022/10/05 10:18:56;;;;;;;5.72;2.92;;;16.30;99.90;;;;;;5029899;28;20045;-72
2022/10/05 10:21:34;;;;;;;4.43;2.78;;;16.20;99.90;;;;;;5029308;28;20053;-71
2022/10/05 10:24:16;;;;;;;6.30;2.90;;;16.20;99.90;;;;;;5044489;28;20554;-71
2022/10/05 10:26:55;;;;;;;6.57;2.78;;;16.30;99.90;;;;;;5033440;28;20087;-71
2022/10/05 10:29:29;;;;;;;5.90;2.70;;;16.20;99.90;;;;;;5044926;28;20590;-71
2022/10/05 10:32:36;;;;;;;4.60;2.75;;;16.20;99.90;;;;;;5049501;28;20060;-71
2022/10/05 10:35:20;;;;;;;6.50;2.40;;;16.20;99.90;;;;;;5018705;28;20530;-70
2022/10/05 10:38:10;;;;;;;7.53;2.50;;;16.10;99.90;;;;;;5032560;28;20076;-71
2022/10/05 10:40:36;;;;;;;5.82;2.60;;;16.10;99.90;;;;;;5046548;28;20052;-71
2022/10/05 10:43:32;;;;;;;4.63;2.50;;;16.00;99.90;;;;;;5044870;28;20048;-71
2022/10/05 10:46:10;;;;;;;6.82;2.78;;;16.00;99.90;;;;;;5046428;28;20040;-71
2022/10/05 10:48:48;;;;;;;5.35;3.00;;;16.00;99.90;;;;;;5021014;28;20072;-72
2022/10/05 10:51:27;;;;;;;4.93;3.17;;;15.90;99.90;;;;;;5047167;28;20524;-71
2022/10/05 10:54:02;;;;;;;6.88;2.75;;;15.90;99.90;;;;;;5026674;28;20106;-71
2022/10/05 10:56:46;;;;;;;6.30;2.88;;;15.90;99.90;;;;;;4947016;28;21017;-71
2022/10/05 10:59:30;;;;;;;4.80;3.00;;;15.90;99.90;;;;;;5044405;28;20131;-71
2022/10/05 11:02:14;;;;;;;4.72;2.80;;;15.90;99.90;;;;;;5029041;28;20400;-72
2022/10/05 11:05:14;;;;;;;4.72;3.55;;;15.90;99.90;;;;;;5046410;28;20503;-71
2022/10/05 11:07:48;;;;;;;6.40;3.20;;;15.90;99.90;;;;;;5029130;28;20048;-70
2022/10/05 11:10:59;;;;;;;6.82;3.50;;;15.80;99.90;;;;;;5048240;28;20206;-70
2022/10/05 11:14:01;;;;;;;7.45;3.50;;;15.80;99.90;;;;;;5046549;28;20055;-71
2022/10/05 11:16:48;;;;;;;7.32;3.60;;;15.80;99.90;;;;;;5035151;28;21041;-71
2022/10/05 11:19:20;;;;;;;5.63;3.50;;;15.80;99.90;;;;;;5046072;28;20048;-71
2022/10/05 11:22:15;;;;;;;4.25;2.97;;;15.80;99.90;;;;;;5045186;28;20605;-71
2022/10/05 11:25:01;;;;;;;6.38;3.45;;;15.80;99.90;;;;;;5026987;28;20163;-71
2022/10/05 11:27:35;;;;;;;5.18;3.30;;;15.80;99.90;;;;;;5029280;28;20032;-71
2022/10/05 11:30:21;;;;;;;7.43;3.30;;;15.80;99.90;;;;;;5043190;28;20059;-70
2022/10/05 11:33:25;;;;;;;4.72;3.35;;;15.80;99.90;;;;;;4994405;28;20044;-70
2022/10/05 11:36:00;;;;;;;7.32;3.65;;;15.80;99.90;;;;;;5046780;28;20428;-71
2022/10/05 11:38:28;;;;;;;6.10;3.75;;;15.70;99.90;;;;;;5011807;28;20381;-71
2022/10/05 11:41:40;;;;;;;8.50;3.72;;;15.80;99.90;;;;;;5045173;28;20056;-71
2022/10/05 11:44:43;;;;;;;5.32;2.70;;;15.80;99.90;;;;;;5044112;28;20063;-71
2022/10/05 11:47:12;;;;;;;10.75;3.30;;;15.80;99.90;;;;;;5028417;28;20507;-71
2022/10/05 11:50:05;;;;;;;5.18;2.75;;;15.80;99.90;;;;;;5027571;28;20044;-71
2022/10/05 11:53:07;;;;;;;5.05;2.70;;;15.80;99.90;;;;;;5044259;28;20040;-70
2022/10/05 11:55:43;;;;;;;5.40;3.30;;;15.80;99.90;;;;;;5030729;28;20064;-70
2022/10/05 11:58:21;;;;;;;3.35;2.38;;;15.80;99.90;;;;;;5027362;28;20048;-70
2022/10/05 12:01:16;;;;;;;7.18;2.60;;;15.80;99.90;;;;;;5046087;28;20173;-70
2022/10/05 12:04:02;;;;;;;6.10;2.35;;;15.90;99.90;;;;;;5042716;28;20641;-71
2022/10/05 12:06:31;;;;;;;5.10;2.03;;;15.90;99.90;;;;;;5015567;28;20850;-70
2022/10/05 12:09:25;;;;;;;6.93;2.55;;;15.90;99.90;;;;;;5042498;28;20053;-71
2022/10/05 12:12:13;;;;;;;4.80;1.98;;;15.90;99.90;;;;;;5027941;28;20526;-71
2022/10/05 12:15:01;;;;;;;7.28;3.60;;;15.90;99.90;;;;;;5046610;28;20106;-71
2022/10/05 12:17:56;;;;;;;3.95;2.75;;;15.90;99.90;;;;;;5030219;28;20040;-70
2022/10/05 12:20:45;;;;;;;3.95;2.63;;;15.80;99.90;;;;;;4991483;28;20037;-71
2022/10/05 12:23:29;;;;;;;6.93;3.85;;;15.90;99.90;;;;;;5043718;28;20083;-71
2022/10/05 12:26:04;;;;;;;7.10;2.80;;;15.90;99.90;;;;;;5045128;28;20671;-71
2022/10/05 12:28:43;;;;;;;4.10;1.80;;;15.90;99.90;;;;;;5027865;28;20847;-70
2022/10/05 12:31:33;;;;;;;2.22;1.63;;;16.00;99.90;;;;;;5045231;28;20053;-70
2022/10/05 12:34:40;;;;;;;4.80;1.70;;;16.00;99.90;;;;;;5042747;28;20135;-71
2022/10/05 12:37:15;;;;;;;4.13;2.08;;;16.00;99.90;;;;;;5030784;28;20052;-71
2022/10/05 12:39:55;;;;;;;4.93;1.85;;;16.00;99.90;;;;;;5044698;28;20495;-71
2022/10/05 12:42:54;;;;;;;2.20;1.92;;;16.00;99.90;;;;;;5043161;28;20052;-71
2022/10/05 12:45:55;;;;;;;3.17;2.10;;;16.00;99.90;;;;;;5043224;28;20057;-72
2022/10/05 12:48:46;;;;;;;3.42;2.20;;;16.00;99.90;;;;;;5027868;28;20511;-70
2022/10/05 12:51:38;;;;;;;6.35;2.30;;;16.10;99.90;;;;;;5003989;28;20067;-71
2022/10/05 12:54:27;;;;;;;3.30;2.20;;;16.00;99.90;;;;;;5041525;28;20135;-71
2022/10/05 12:57:00;;;;;;;6.50;2.35;;;16.00;99.90;;;;;;5027420;28;20052;-71
2022/10/05 12:59:41;;;;;;;3.47;2.17;;;16.00;99.90;;;;;;5027100;28;20054;-70
2022/10/05 13:02:24;;;;;;;4.22;2.22;;;16.00;99.90;;;;;;5042589;28;20135;-70
2022/10/05 13:05:02;;;;;;;3.08;2.28;;;16.00;99.90;;;;;;5043637;28;21000;-71
2022/10/05 13:07:37;;;;;;;5.63;2.28;;;16.00;99.90;;;;;;5010704;28;20109;-72
2022/10/05 13:10:31;;;;;;;4.43;2.45;;;16.00;99.90;;;;;;5044810;28;20067;-70
2022/10/05 13:13:22;;;;;;;6.45;1.95;;;16.00;99.90;;;;;;5041978;28;20051;-72
2022/10/05 13:16:16;;;;;;;6.47;3.20;;;16.00;99.90;;;;;;5027494;28;20061;-70
2022/10/05 13:19:06;;;;;;;4.80;2.55;;;16.00;99.90;;;;;;5036541;28;20090;-70
2022/10/05 13:21:56;;;;;;;4.47;2.35;;;16.00;99.90;;;;;;5039098;28;20040;-70
2022/10/05 13:24:27;;;;;;;4.55;2.60;;;16.10;99.90;;;;;;5039262;28;20090;-72
2022/10/05 13:27:21;;;;;;;3.70;2.28;;;16.10;99.90;;;;;;5024468;28;20230;-70
2022/10/05 13:30:14;;;;;;;8.00;2.88;;;16.10;99.90;;;;;;5030490;28;20056;-71
2022/10/05 13:33:19;;;;;;;6.68;2.95;;;16.20;99.90;;;;;;5038945;28;20072;-71
2022/10/05 13:36:11;;;;;;;5.57;2.97;;;16.20;99.90;;;;;;5040193;28;20057;-71
2022/10/05 13:38:50;;;;;;;7.45;3.08;;;16.20;99.90;;;;;;5033283;28;20064;-71
2022/10/05 13:41:44;;;;;;;5.63;3.10;;;16.30;99.90;;;;;;5043781;28;20789;-72
2022/10/05 13:44:35;;;;;;;7.07;3.50;;;16.30;99.90;;;;;;5027201;28;20048;-72
2022/10/05 13:47:19;;;;;;;4.85;3.33;;;16.30;99.90;;;;;;5012508;28;20186;-70
2022/10/05 13:50:11;;;;;;;5.15;3.35;;;16.30;99.90;;;;;;5044608;28;20135;-71
2022/10/05 13:53:08;;;;;;;5.55;3.38;;;16.40;99.90;;;;;;5027056;28;20064;-71
2022/10/05 13:56:07;;;;;;;4.93;3.50;;;16.40;99.90;;;;;;5026063;28;20431;-71
2022/10/05 13:58:49;;;;;;;6.80;3.45;;;16.40;99.90;;;;;;5033973;28;20045;-71
2022/10/05 14:01:37;;;;;;;6.97;3.90;;;16.50;99.90;;;;;;5027947;28;20126;-72
2022/10/05 14:04:23;;;;;;;6.15;3.60;;;16.50;99.90;;;;;;5042219;28;20056;-71
2022/10/05 14:06:51;;;;;;;4.70;3.58;;;16.50;99.90;;;;;;5011042;28;20049;-71